Time;durP1;ratioP1;P1;durP2;ratioP2;P2;SDS_P1;SDS_P2;PMS_P1;PMS_P2;Temp;Humidity;BMP_temperature;BMP_pressure;BME280_temperature;BME280_humidity;BME280_pressure;Samples;Min_cycle;Max_cycle;Signal;HPM_P1;HPM_P2
2022/05/02 00:00:00;;;;;;;;;;;;;;;;;;5072785;28;20304;-78
2022/05/02 00:02:25;;;;;;;;;;;;;;;;;;5074052;28;19917;-78
2022/05/02 00:04:51;;;;;;;;;;;;;;;;;;5073847;28;19962;-79
2022/05/02 00:07:16;;;;;;;;;;;;;;;;;;5074147;28;20263;-77
2022/05/02 00:09:42;;;;;;;;;;;;;;;;;;5073838;28;20359;-78
2022/05/02 00:12:07;;;;;;;;;;;;;;;;;;5076270;28;19962;-80
2022/05/02 00:14:33;;;;;;;;;;;;;;;;;;5081007;28;20294;-78
2022/05/02 00:16:58;;;;;;;;;;;;;;;;;;5094149;28;19961;-78
2022/05/02 00:19:24;;;;;;;;;;;;;;;;;;5096155;28;19999;-78
2022/05/02 00:21:49;;;;;;;;;;;;;;;;;;5116604;28;20374;-77
2022/05/02 00:24:14;;;;;;;;;;;;;;;;;;5115734;28;19915;-78
2022/05/02 00:26:41;;;;;;;;;;;;;;;;;;5115207;28;19962;-79
2022/05/02 00:29:06;;;;;;;;;;;;;;;;;;5116324;28;19920;-77
2022/05/02 00:31:32;;;;;;;;;;;;;;;;;;5105096;28;19916;-77
2022/05/02 00:33:57;;;;;;;;;;;;;;;;;;5096015;28;19915;-77
2022/05/02 00:36:24;;;;;;;;;;;;;;;;;;5094824;28;19919;-78
2022/05/02 00:38:49;;;;;;;;;;;;;;;;;;5094277;28;19916;-77
2022/05/02 00:41:15;;;;;;;;;;;;;;;;;;5095971;28;20767;-78
2022/05/02 00:43:40;;;;;;;;;;;;;;;;;;5082221;28;19923;-77
2022/05/02 00:46:18;;;;;;;;;;;;;;;;;;5075466;28;20405;-78
2022/05/02 00:48:44;;;;;;;;;;;;;;;;;;5077767;28;21186;-78
2022/05/02 00:51:09;;;;;;;;;;;;;;;;;;5095544;28;20002;-77
2022/05/02 00:53:35;;;;;;;;;;;;;;;;;;5095711;28;20392;-77
2022/05/02 00:56:01;;;;;;;;;;;;;;;;;;5095310;28;20003;-78
2022/05/02 00:58:27;;;;;;;;;;;;;;;;;;5095488;28;19942;-77
2022/05/02 01:00:52;;;;;;;;;;;;;;;;;;5095389;28;19920;-78
2022/05/02 01:03:17;;;;;;;;;;;;;;;;;;5095308;28;19916;-77
2022/05/02 01:08:29;;;;;;;;;;;;;;;;;;5095177;28;20318;-78
2022/05/02 01:10:55;;;;;;;;;;;;;;;;;;5094125;28;20008;-77
2022/05/02 01:13:37;;;;;;;;;;;;;;;;;;5095170;28;19924;-77
2022/05/02 01:16:09;;;;;;;;;;;;;;;;;;5095253;28;19920;-77
2022/05/02 01:18:35;;;;;;;;;;;;;;;;;;5095136;28;19916;-77
2022/05/02 01:21:00;;;;;;;;;;;;;;;;;;5096369;28;20003;-78
2022/05/02 01:23:26;;;;;;;;;;;;;;;;;;5095261;28;19981;-79
2022/05/02 01:25:51;;;;;;;;;;;;;;;;;;5094515;28;19916;-77
2022/05/02 01:28:17;;;;;;;;;;;;;;;;;;5095007;28;19970;-77
2022/05/02 01:30:42;;;;;;;;;;;;;;;;;;5096087;28;19924;-77
2022/05/02 01:33:09;;;;;;;;;;;;;;;;;;5115290;28;19915;-78
2022/05/02 01:35:34;;;;;;;;;;;;;;;;;;5113959;28;20002;-78
2022/05/02 01:38:00;;;;;;;;;;;;;;;;;;5114830;28;20476;-77
2022/05/02 01:40:25;;;;;;;;;;;;;;;;;;5078641;28;19917;-78
2022/05/02 01:42:50;;;;;;;;;;;;;;;;;;5074126;28;19966;-77
2022/05/02 01:45:15;;;;;;;;;;;;;;;;;;5074447;28;19923;-77
2022/05/02 01:47:41;;;;;;;;;;;;;;;;;;5074301;28;20383;-78
2022/05/02 01:50:06;;;;;;;;;;;;;;;;;;5074532;28;19917;-78
2022/05/02 01:52:31;;;;;;;;;;;;;;;;;;5074170;28;19947;-78
2022/05/02 01:54:57;;;;;;;;;;;;;;;;;;5074293;28;19999;-78
2022/05/02 01:57:22;;;;;;;;;;;;;;;;;;5074183;28;19926;-78
2022/05/02 01:59:49;;;;;;;;;;;;;;;;;;5090367;28;21468;-77
2022/05/02 02:02:15;;;;;;;;;;;;;;;;;;5114651;28;20352;-78
2022/05/02 02:07:24;;;;;;;;;;;;;;;;;;5113413;28;19927;-77
2022/05/02 02:09:49;;;;;;;;;;;;;;;;;;5115044;28;19919;-78
2022/05/02 02:12:15;;;;;;;;;;;;;;;;;;5114950;28;19961;-78
2022/05/02 02:14:40;;;;;;;;;;;;;;;;;;5109722;28;19959;-79
2022/05/02 02:17:05;;;;;;;;;;;;;;;;;;5102706;28;19920;-80
2022/05/02 02:19:30;;;;;;;;;;;;;;;;;;5100761;28;19927;-80
2022/05/02 02:22:16;;;;;;;;;;;;;;;;;;5097512;28;19919;-78
2022/05/02 02:24:41;;;;;;;;;;;;;;;;;;5097409;28;19916;-79
2022/05/02 02:27:06;;;;;;;;;;;;;;;;;;5096827;28;19916;-79
2022/05/02 02:29:31;;;;;;;;;;;;;;;;;;5095701;28;19927;-79
2022/05/02 02:31:57;;;;;;;;;;;;;;;;;;5083522;28;19951;-79
2022/05/02 02:34:22;;;;;;;;;;;;;;;;;;5076296;28;19924;-78
2022/05/02 02:36:47;;;;;;;;;;;;;;;;;;5077022;28;19916;-78
2022/05/02 02:39:12;;;;;;;;;;;;;;;;;;5076788;28;19920;-78
2022/05/02 02:41:38;;;;;;;;;;;;;;;;;;5076207;28;19916;-78
2022/05/02 02:44:03;;;;;;;;;;;;;;;;;;5074301;28;19916;-78
2022/05/02 02:46:28;;;;;;;;;;;;;;;;;;5074141;28;19917;-78
2022/05/02 02:48:54;;;;;;;;;;;;;;;;;;5074410;28;19920;-78
2022/05/02 02:51:19;;;;;;;;;;;;;;;;;;5079651;28;19923;-79
2022/05/02 02:53:45;;;;;;;;;;;;;;;;;;5077222;28;20396;-78
2022/05/02 02:56:10;;;;;;;;;;;;;;;;;;5082498;28;19920;-80
2022/05/02 02:58:35;;;;;;;;;;;;;;;;;;5104094;28;19916;-81
2022/05/02 03:01:00;;;;;;;;;;;;;;;;;;5107463;28;19916;-81
2022/05/02 03:03:27;;;;;;;;;;;;;;;;;;5107176;28;19923;-82
2022/05/02 03:06:02;;;;;;;;;;;;;;;;;;5102907;28;19920;-79
2022/05/02 03:08:28;;;;;;;;;;;;;;;;;;5083983;28;19927;-79
2022/05/02 03:10:54;;;;;;;;;;;;;;;;;;5081599;28;19920;-80
2022/05/02 03:13:20;;;;;;;;;;;;;;;;;;5080286;28;20430;-79
2022/05/02 03:15:45;;;;;;;;;;;;;;;;;;5080008;28;19967;-79
2022/05/02 03:18:10;;;;;;;;;;;;;;;;;;5079800;28;20386;-79
2022/05/02 03:20:35;;;;;;;;;;;;;;;;;;5079796;28;19951;-78
2022/05/02 03:23:01;;;;;;;;;;;;;;;;;;5079831;28;19917;-79
2022/05/02 03:25:26;;;;;;;;;;;;;;;;;;5077420;28;19916;-80
2022/05/02 03:27:51;;;;;;;;;;;;;;;;;;5080511;28;20422;-81
2022/05/02 03:30:17;;;;;;;;;;;;;;;;;;5094853;28;20325;-82
2022/05/02 03:32:42;;;;;;;;;;;;;;;;;;5095445;28;19955;-82
2022/05/02 03:35:07;;;;;;;;;;;;;;;;;;5098621;28;20378;-79
2022/05/02 03:37:33;;;;;;;;;;;;;;;;;;5096726;28;19973;-82
2022/05/02 03:39:58;;;;;;;;;;;;;;;;;;5097171;28;19951;-80
2022/05/02 03:42:23;;;;;;;;;;;;;;;;;;5099050;28;19916;-81
2022/05/02 03:44:48;;;;;;;;;;;;;;;;;;5100904;28;20381;-79
2022/05/02 03:47:14;;;;;;;;;;;;;;;;;;5103654;28;19916;-79
2022/05/02 03:49:39;;;;;;;;;;;;;;;;;;5105133;28;19920;-79
2022/05/02 03:52:05;;;;;;;;;;;;;;;;;;5103155;28;19991;-80
2022/05/02 03:54:30;;;;;;;;;;;;;;;;;;5102536;28;19923;-80
2022/05/02 03:56:56;;;;;;;;;;;;;;;;;;5102371;28;19966;-80
2022/05/02 03:59:21;;;;;;;;;;;;;;;;;;5102440;28;19931;-81
2022/05/02 04:01:47;;;;;;;;;;;;;;;;;;5102630;28;19920;-80
2022/05/02 04:04:12;;;;;;;;;;;;;;;;;;5102570;28;20041;-80
2022/05/02 04:06:37;;;;;;;;;;;;;;;;;;5101012;28;19916;-79
2022/05/02 04:09:03;;;;;;;;;;;;;;;;;;5103467;28;19924;-79
2022/05/02 04:11:28;;;;;;;;;;;;;;;;;;5103166;28;20382;-79
2022/05/02 04:13:53;;;;;;;;;;;;;;;;;;5101072;28;19916;-80
2022/05/02 04:16:19;;;;;;;;;;;;;;;;;;5101011;28;19923;-78
2022/05/02 04:18:45;;;;;;;;;;;;;;;;;;5102995;28;19923;-78
2022/05/02 04:21:11;;;;;;;;;;;;;;;;;;5103075;28;19916;-78
2022/05/02 04:23:36;;;;;;;;;;;;;;;;;;5104898;28;19916;-80
2022/05/02 04:26:02;;;;;;;;;;;;;;;;;;5108386;28;19916;-80
2022/05/02 04:28:28;;;;;;;;;;;;;;;;;;5106084;28;19987;-79
2022/05/02 04:30:54;;;;;;;;;;;;;;;;;;5105608;28;20371;-80
2022/05/02 04:33:19;;;;;;;;;;;;;;;;;;5104731;28;19916;-78
2022/05/02 04:35:44;;;;;;;;;;;;;;;;;;5103609;28;19916;-79
2022/05/02 04:38:10;;;;;;;;;;;;;;;;;;5102779;28;19922;-79
2022/05/02 04:40:35;;;;;;;;;;;;;;;;;;5103361;28;19916;-79
2022/05/02 04:43:00;;;;;;;;;;;;;;;;;;5102853;28;19916;-79
2022/05/02 04:45:26;;;;;;;;;;;;;;;;;;5102364;28;19938;-78
2022/05/02 04:47:51;;;;;;;;;;;;;;;;;;5101486;28;20010;-78
2022/05/02 04:50:16;;;;;;;;;;;;;;;;;;5102543;28;20007;-79
2022/05/02 04:52:42;;;;;;;;;;;;;;;;;;5101494;28;19977;-78
2022/05/02 04:55:07;;;;;;;;;;;;;;;;;;5099230;28;19927;-79
2022/05/02 04:57:33;;;;;;;;;;;;;;;;;;5100629;28;19922;-79
2022/05/02 04:59:58;;;;;;;;;;;;;;;;;;5083069;28;19916;-79
2022/05/02 05:02:24;;;;;;;;;;;;;;;;;;5080195;28;20011;-79
2022/05/02 05:04:49;;;;;;;;;;;;;;;;;;5082163;28;19916;-79
2022/05/02 05:07:14;;;;;;;;;;;;;;;;;;5081714;28;19962;-79
2022/05/02 05:09:40;;;;;;;;;;;;;;;;;;5096977;28;19924;-82
2022/05/02 05:12:15;;;;;;;;;;;;;;;;;;5099404;28;19916;-79
2022/05/02 05:17:48;;;;;;;;;;;;;;;;;;5099954;28;19923;-79
2022/05/02 05:20:34;;;;;;;;;;;;;;;;;;5099545;28;19923;-79
2022/05/02 05:23:05;;;;;;;;;;;;;;;;;;5068290;28;19923;-79
2022/05/02 05:25:39;;;;;;;;;;;;;;;;;;5091183;28;19916;-79
2022/05/02 05:28:13;;;;;;;;;;;;;;;;;;5079412;28;19928;-79
2022/05/02 05:30:42;;;;;;;;;;;;;;;;;;5079333;28;19916;-80
2022/05/02 05:33:23;;;;;;;;;;;;;;;;;;5079026;28;19923;-79
2022/05/02 05:36:14;;;;;;;;;;;;;;;;;;5078452;28;20378;-79
2022/05/02 05:39:12;;;;;;;;;;;;;;;;;;5055070;28;19923;-79
2022/05/02 05:41:37;;;;;;;;;;;;;;;;;;5036070;28;20154;-79
2022/05/02 05:44:02;;;;;;;;;;;;;;;;;;5081894;28;19942;-80
2022/05/02 05:46:27;;;;;;;;;;;;;;;;;;5082627;28;19987;-79
2022/05/02 05:49:01;;;;;;;;;;;;;;;;;;5082627;28;19946;-80
2022/05/02 05:51:33;;;;;;;;;;;;;;;;;;5083416;28;19920;-82
2022/05/02 05:54:17;;;;;;;;;;;;;;;;;;5083401;28;19924;-80
2022/05/02 05:56:42;;;;;;;;;;;;;;;;;;5086259;28;19928;-81
2022/05/02 05:59:09;;;;;;;;;;;;;;;;;;5122121;28;19916;-80
2022/05/02 06:01:58;;;;;;;;;;;;;;;;;;5126252;28;19915;-79
2022/05/02 06:04:25;;;;;;;;;;;;;;;;;;5095273;28;19997;-80
2022/05/02 06:06:50;;;;;;;;;;;;;;;;;;5124726;28;19916;-79
2022/05/02 06:09:16;;;;;;;;;;;;;;;;;;5123555;28;20282;-79
2022/05/02 06:11:44;;;;;;;;;;;;;;;;;;5124582;28;20376;-79
2022/05/02 06:14:11;;;;;;;;;;;;;;;;;;5118949;28;19916;-78
2022/05/02 06:19:24;;;;;;;;;;;;;;;;;;5097984;28;19916;-78
2022/05/02 06:21:49;;;;;;;;;;;;;;;;;;5101267;28;19916;-78
2022/05/02 06:24:15;;;;;;;;;;;;;;;;;;5096514;28;19923;-79
2022/05/02 06:26:42;;;;;;;;;;;;;;;;;;5095930;28;19916;-77
2022/05/02 06:29:08;;;;;;;;;;;;;;;;;;5116229;28;20376;-79
2022/05/02 06:31:36;;;;;;;;;;;;;;;;;;5118147;28;19920;-78
2022/05/02 06:34:02;;;;;;;;;;;;;;;;;;5114394;28;19916;-77
2022/05/02 06:36:33;;;;;;;;;;;;;;;;;;5117433;28;19915;-77
2022/05/02 06:39:03;;;;;;;;;;;;;;;;;;5114525;28;19955;-78
2022/05/02 06:41:35;;;;;;;;;;;;;;;;;;5096755;28;19943;-79
2022/05/02 06:44:20;;;;;;;;;;;;;;;;;;5093603;28;19922;-77
2022/05/02 06:46:55;;;;;;;;;;;;;;;;;;5094260;28;20452;-77
2022/05/02 06:49:22;;;;;;;;;;;;;;;;;;5094086;28;19927;-77
2022/05/02 06:51:51;;;;;;;;;;;;;;;;;;5094835;28;20381;-78
2022/05/02 06:54:23;;;;;;;;;;;;;;;;;;5094307;28;19923;-77
2022/05/02 06:56:50;;;;;;;;;;;;;;;;;;5091261;28;19927;-77
2022/05/02 06:59:34;;;;;;;;;;;;;;;;;;5093293;28;20405;-77
2022/05/02 07:02:15;;;;;;;;;;;;;;;;;;5092072;28;19923;-77
2022/05/02 07:04:44;;;;;;;;;;;;;;;;;;5093609;28;20374;-77
2022/05/02 07:07:11;;;;;;;;;;;;;;;;;;5093533;28;19969;-77
2022/05/02 07:09:42;;;;;;;;;;;;;;;;;;5093609;28;19920;-76
2022/05/02 07:12:17;;;;;;;;;;;;;;;;;;5084498;28;20400;-76
2022/05/02 07:15:00;;;;;;;;;;;;;;;;;;5081566;28;20282;-76
2022/05/02 07:17:47;;;;;;;;;;;;;;;;;;5070778;28;19920;-78
2022/05/02 07:20:30;;;;;;;;;;;;;;;;;;5088307;28;19952;-77
2022/05/02 07:22:56;;;;;;;;;;;;;;;;;;5097301;28;20369;-77
2022/05/02 07:25:22;;;;;;;;;;;;;;;;;;5095801;28;19916;-79
2022/05/02 07:27:57;;;;;;;;;;;;;;;;;;5095710;28;19916;-77
2022/05/02 07:30:23;;;;;;;;;;;;;;;;;;5078702;28;19916;-77
2022/05/02 07:32:49;;;;;;;;;;;;;;;;;;5098854;28;19923;-77
2022/05/02 07:35:15;;;;;;;;;;;;;;;;;;5096905;28;19916;-77
2022/05/02 07:37:41;;;;;;;;;;;;;;;;;;5095804;28;19923;-78
2022/05/02 07:40:10;;;;;;;;;;;;;;;;;;5097278;28;20401;-78
2022/05/02 07:42:36;;;;;;;;;;;;;;;;;;5097295;28;19916;-77
2022/05/02 07:45:02;;;;;;;;;;;;;;;;;;5097558;28;19969;-78
2022/05/02 07:47:31;;;;;;;;;;;;;;;;;;5098267;28;20382;-80
2022/05/02 07:49:57;;;;;;;;;;;;;;;;;;5099041;28;20019;-80
2022/05/02 07:52:23;;;;;;;;;;;;;;;;;;5097450;28;19962;-79
2022/05/02 07:54:49;;;;;;;;;;;;;;;;;;5085098;28;19923;-80
2022/05/02 07:57:15;;;;;;;;;;;;;;;;;;5073931;28;19916;-78
2022/05/02 07:59:40;;;;;;;;;;;;;;;;;;5072929;28;20011;-79
2022/05/02 08:02:06;;;;;;;;;;;;;;;;;;5073913;28;19916;-78
2022/05/02 08:04:31;;;;;;;;;;;;;;;;;;5092170;28;19982;-77
2022/05/02 08:07:03;;;;;;;;;;;;;;;;;;5096143;28;19923;-77
2022/05/02 08:09:40;;;;;;;;;;;;;;;;;;5096712;28;19920;-76
2022/05/02 08:12:06;;;;;;;;;;;;;;;;;;5097098;28;19920;-79
2022/05/02 08:14:31;;;;;;;;;;;;;;;;;;5099612;28;20456;-79
2022/05/02 08:17:02;;;;;;;;;;;;;;;;;;5100003;28;19916;-78
2022/05/02 08:19:35;;;;;;;;;;;;;;;;;;5098920;28;20015;-78
2022/05/02 08:27:51;;;;;;;;;;;;;;;;;;5076328;28;20362;-78
2022/05/02 08:30:21;;;;;;;;;;;;;;;;;;5074814;28;19927;-79
2022/05/02 08:32:54;;;;;;;;;;;;;;;;;;5075969;28;20019;-78
2022/05/02 08:35:38;;;;;;;;;;;;;;;;;;5075299;28;20018;-77
2022/05/02 08:38:22;;;;;;;;;;;;;;;;;;5075616;28;20058;-78
2022/05/02 08:41:06;;;;;;;;;;;;;;;;;;5075071;28;19916;-76
2022/05/02 08:43:31;;;;;;;;;;;;;;;;;;5075628;28;19959;-78
2022/05/02 08:46:13;;;;;;;;;;;;;;;;;;5075227;28;19917;-77
2022/05/02 08:48:44;;;;;;;;;;;;;;;;;;5073963;28;19927;-78
2022/05/02 08:51:28;;;;;;;;;;;;;;;;;;5075367;28;20354;-78
2022/05/02 08:53:53;;;;;;;;;;;;;;;;;;5075370;28;19917;-77
2022/05/02 08:56:25;;;;;;;;;;;;;;;;;;5075202;28;20439;-77
2022/05/02 08:59:09;;;;;;;;;;;;;;;;;;5077599;28;19955;-80
2022/05/02 09:01:37;;;;;;;;;;;;;;;;;;5087700;28;19925;-80
2022/05/02 09:04:09;;;;;;;;;;;;;;;;;;5087797;28;19985;-79
2022/05/02 09:06:38;;;;;;;;;;;;;;;;;;5086369;28;19923;-79
2022/05/02 09:09:09;;;;;;;;;;;;;;;;;;5086098;28;19920;-80
2022/05/02 09:11:54;;;;;;;;;;;;;;;;;;5085515;28;19917;-80
2022/05/02 09:14:44;;;;;;;;;;;;;;;;;;5083964;28;20427;-80
2022/05/02 09:17:09;;;;;;;;;;;;;;;;;;5082403;28;19920;-80
2022/05/02 09:19:52;;;;;;;;;;;;;;;;;;5084200;28;20547;-80
2022/05/02 09:22:26;;;;;;;;;;;;;;;;;;5083455;28;19924;-80
2022/05/02 09:25:03;;;;;;;;;;;;;;;;;;5080712;28;19916;-81
2022/05/02 09:27:53;;;;;;;;;;;;;;;;;;5084568;28;19916;-80
2022/05/02 09:30:22;;;;;;;;;;;;;;;;;;5103260;28;19920;-79
2022/05/02 09:32:55;;;;;;;;;;;;;;;;;;5104428;28;19916;-79
2022/05/02 09:35:30;;;;;;;;;;;;;;;;;;5104343;28;19969;-79
2022/05/02 09:38:11;;;;;;;;;;;;;;;;;;5103475;28;19923;-78
2022/05/02 09:40:41;;;;;;;;;;;;;;;;;;5099589;28;19916;-78
2022/05/02 09:43:10;;;;;;;;;;;;;;;;;;5099361;28;20274;-78
2022/05/02 09:51:46;;;;;;;;;;;;;;;;;;5099051;28;19923;-77
2022/05/02 09:56:38;;;;;;;;;;;;;;;;;;5099796;28;19922;-78
2022/05/02 09:57:14;;;;;;;;;;;;;;;;;;5098557;28;19920;-78
2022/05/02 09:59:45;;;;;;;;;;;;;;;;;;5102481;28;19923;-78
2022/05/02 10:02:23;;;;;;;;;;;;;;;;;;5085415;28;19949;-80
2022/05/02 10:04:48;;;;;;;;;;;;;;;;;;5101260;28;19926;-78
2022/05/02 10:07:18;;;;;;;;;;;;;;;;;;5101655;28;19999;-79
2022/05/02 10:09:59;;;;;;;;;;;;;;;;;;5096891;28;19920;-78
2022/05/02 10:12:30;;;;;;;;;;;;;;;;;;5099515;28;19927;-80
2022/05/02 10:15:14;;;;;;;;;;;;;;;;;;5102834;28;19916;-79
2022/05/02 10:17:58;;;;;;;;;;;;;;;;;;5101277;28;19916;-78
2022/05/02 10:20:27;;;;;;;;;;;;;;;;;;5096620;28;19927;-78
2022/05/02 10:23:12;;;;;;;;;;;;;;;;;;5097343;28;19920;-79
2022/05/02 10:25:41;;;;;;;;;;;;;;;;;;5097083;28;19916;-76
2022/05/02 10:28:10;;;;;;;;;;;;;;;;;;5091271;28;19916;-76
2022/05/02 10:30:56;;;;;;;;;;;;;;;;;;5092719;28;19916;-77
2022/05/02 10:33:24;;;;;;;;;;;;;;;;;;5077657;28;20003;-77
2022/05/02 10:35:51;;;;;;;;;;;;;;;;;;5092836;28;19916;-79
2022/05/02 10:38:25;;;;;;;;;;;;;;;;;;5095745;28;19953;-78
2022/05/02 10:40:56;;;;;;;;;;;;;;;;;;5098455;28;20393;-78
2022/05/02 10:43:25;;;;;;;;;;;;;;;;;;5098729;28;19946;-78
2022/05/02 10:45:51;;;;;;;;;;;;;;;;;;5092966;28;19916;-77
2022/05/02 10:48:19;;;;;;;;;;;;;;;;;;5094869;28;19920;-77
2022/05/02 10:50:50;;;;;;;;;;;;;;;;;;5093700;28;19923;-77
2022/05/02 10:53:27;;;;;;;;;;;;;;;;;;5093753;28;19916;-77
2022/05/02 10:55:54;;;;;;;;;;;;;;;;;;5098618;28;19927;-77
2022/05/02 10:58:20;;;;;;;;;;;;;;;;;;5096972;28;20015;-77
2022/05/02 11:00:58;;;;;;;;;;;;;;;;;;5099347;28;19916;-77
2022/05/02 11:03:35;;;;;;;;;;;;;;;;;;5099382;28;20267;-77
2022/05/02 11:06:01;;;;;;;;;;;;;;;;;;5099014;28;19961;-77
2022/05/02 11:08:30;;;;;;;;;;;;;;;;;;5099229;28;20500;-77
2022/05/02 11:11:04;;;;;;;;;;;;;;;;;;5099304;28;20397;-77
2022/05/02 11:13:36;;;;;;;;;;;;;;;;;;5098809;28;19955;-77
2022/05/02 11:16:05;;;;;;;;;;;;;;;;;;5098389;28;20274;-77
2022/05/02 11:21:39;;;;;;;;;;;;;;;;;;5098418;28;20344;-77
2022/05/02 11:24:43;;;;;;;;;;;;;;;;;;5097573;28;19988;-77
2022/05/02 11:27:17;;;;;;;;;;;;;;;;;;5037169;28;20286;-77
2022/05/02 11:29:48;;;;;;;;;;;;;;;;;;5037196;28;19921;-77
2022/05/02 11:32:28;;;;;;;;;;;;;;;;;;5061789;28;19920;-77
2022/05/02 11:35:21;;;;;;;;;;;;;;;;;;5099330;28;19920;-77
2022/05/02 11:38:02;;;;;;;;;;;;;;;;;;5094889;28;20293;-77
2022/05/02 11:40:33;;;;;;;;;;;;;;;;;;5099070;28;19916;-77
2022/05/02 11:42:58;;;;;;;;;;;;;;;;;;5098941;28;19962;-77
2022/05/02 11:45:41;;;;;;;;;;;;;;;;;;5099178;28;19920;-77
2022/05/02 11:48:14;;;;;;;;;;;;;;;;;;5080510;28;19916;-77
2022/05/02 11:50:40;;;;;;;;;;;;;;;;;;5099684;28;19999;-77
2022/05/02 11:53:08;;;;;;;;;;;;;;;;;;5098381;28;19950;-78
2022/05/02 11:55:34;;;;;;;;;;;;;;;;;;5096079;28;19924;-75
2022/05/02 11:58:13;;;;;;;;;;;;;;;;;;5097082;28;19916;-75
2022/05/02 12:00:41;;;;;;;;;;;;;;;;;;5094857;28;19922;-75
2022/05/02 12:03:17;;;;;;;;;;;;;;;;;;5078769;28;19916;-75
2022/05/02 12:05:45;;;;;;;;;;;;;;;;;;5096568;28;19961;-75
2022/05/02 12:08:21;;;;;;;;;;;;;;;;;;5096507;28;19916;-75
2022/05/02 12:10:47;;;;;;;;;;;;;;;;;;5096660;28;19923;-76
2022/05/02 12:13:20;;;;;;;;;;;;;;;;;;5078616;28;20278;-76
2022/05/02 12:16:01;;;;;;;;;;;;;;;;;;5095906;28;19916;-76
2022/05/02 12:18:40;;;;;;;;;;;;;;;;;;5095487;28;19922;-76
2022/05/02 12:21:07;;;;;;;;;;;;;;;;;;5094979;28;20270;-76
2022/05/02 12:23:34;;;;;;;;;;;;;;;;;;5096486;28;19923;-76
2022/05/02 12:26:01;;;;;;;;;;;;;;;;;;5094648;28;20010;-76
2022/05/02 12:28:43;;;;;;;;;;;;;;;;;;5096240;28;19927;-76
2022/05/02 12:31:09;;;;;;;;;;;;;;;;;;5096250;28;19920;-76
2022/05/02 12:33:41;;;;;;;;;;;;;;;;;;5096321;28;19916;-76
2022/05/02 12:36:20;;;;;;;;;;;;;;;;;;5095929;28;19962;-76
2022/05/02 12:38:50;;;;;;;;;;;;;;;;;;5094610;28;19916;-77
2022/05/02 12:41:19;;;;;;;;;;;;;;;;;;5096308;28;19916;-76
2022/05/02 12:43:45;;;;;;;;;;;;;;;;;;5096184;28;19923;-75
2022/05/02 12:46:11;;;;;;;;;;;;;;;;;;5095690;28;19916;-75
2022/05/02 12:48:38;;;;;;;;;;;;;;;;;;5094792;28;19927;-76
2022/05/02 12:51:05;;;;;;;;;;;;;;;;;;5095537;28;20428;-75
2022/05/02 12:56:15;;;;;;;;;;;;;;;;;;5095503;28;19928;-75
2022/05/02 13:01:29;;;;;;;;;;;;;;;;;;5092638;28;19916;-75
2022/05/02 13:03:56;;;;;;;;;;;;;;;;;;5093963;28;20389;-75
2022/05/02 13:06:21;;;;;;;;;;;;;;;;;;5094075;28;19955;-74
2022/05/02 13:08:46;;;;;;;;;;;;;;;;;;5095362;28;20020;-74
2022/05/02 13:11:13;;;;;;;;;;;;;;;;;;5093754;28;19920;-75
2022/05/02 13:13:47;;;;;;;;;;;;;;;;;;5092766;28;19916;-75
2022/05/02 13:16:17;;;;;;;;;;;;;;;;;;5092876;28;20061;-75
2022/05/02 13:18:49;;;;;;;;;;;;;;;;;;5091307;28;19923;-74
2022/05/02 13:21:15;;;;;;;;;;;;;;;;;;5092724;28;19923;-75
2022/05/02 13:23:45;;;;;;;;;;;;;;;;;;5092662;28;19916;-75
2022/05/02 13:26:29;;;;;;;;;;;;;;;;;;5093694;28;19916;-75
2022/05/02 13:29:19;;;;;;;;;;;;;;;;;;5094849;28;19920;-75
2022/05/02 13:31:45;;;;;;;;;;;;;;;;;;5094134;28;19916;-75
2022/05/02 13:34:19;;;;;;;;;;;;;;;;;;5094891;28;19923;-74
2022/05/02 13:36:47;;;;;;;;;;;;;;;;;;5094838;28;20015;-75
2022/05/02 13:39:15;;;;;;;;;;;;;;;;;;5093919;28;19916;-75
2022/05/02 13:42:02;;;;;;;;;;;;;;;;;;5095028;28;20362;-75
2022/05/02 13:44:27;;;;;;;;;;;;;;;;;;5094712;28;20001;-75
2022/05/02 13:47:05;;;;;;;;;;;;;;;;;;5093522;28;19916;-75
2022/05/02 13:49:31;;;;;;;;;;;;;;;;;;5093686;28;19927;-75
2022/05/02 13:52:03;;;;;;;;;;;;;;;;;;5094247;28;19916;-74
2022/05/02 13:54:30;;;;;;;;;;;;;;;;;;5094210;28;19998;-75
2022/05/02 13:57:05;;;;;;;;;;;;;;;;;;5093511;28;20335;-75
2022/05/02 13:59:49;;;;;;;;;;;;;;;;;;5094301;28;20002;-75
2022/05/02 14:02:49;;;;;;;;;;;;;;;;;;5093044;28;20006;-74
2022/05/02 14:05:26;;;;;;;;;;;;;;;;;;5093122;28;19963;-74
2022/05/02 14:07:54;;;;;;;;;;;;;;;;;;5093003;28;19927;-75
2022/05/02 14:10:19;;;;;;;;;;;;;;;;;;5094257;28;20392;-75
2022/05/02 14:12:45;;;;;;;;;;;;;;;;;;5093474;28;19916;-74
2022/05/02 14:15:11;;;;;;;;;;;;;;;;;;5094406;28;20440;-75
2022/05/02 14:17:47;;;;;;;;;;;;;;;;;;5094254;28;19916;-74
2022/05/02 14:20:23;;;;;;;;;;;;;;;;;;5092883;28;19969;-75
2022/05/02 14:22:50;;;;;;;;;;;;;;;;;;5093569;28;19916;-75
2022/05/02 14:25:28;;;;;;;;;;;;;;;;;;5094399;28;20301;-74
2022/05/02 14:27:55;;;;;;;;;;;;;;;;;;5093855;28;19946;-75
2022/05/02 14:30:24;;;;;;;;;;;;;;;;;;5092972;28;20340;-74
2022/05/02 14:32:49;;;;;;;;;;;;;;;;;;5093756;28;20336;-75
2022/05/02 14:35:21;;;;;;;;;;;;;;;;;;5093886;28;19916;-75
2022/05/02 14:37:47;;;;;;;;;;;;;;;;;;5091587;28;20362;-74
2022/05/02 14:40:13;;;;;;;;;;;;;;;;;;5087825;28;20332;-75
2022/05/02 14:42:39;;;;;;;;;;;;;;;;;;5085042;28;19924;-74
2022/05/02 14:45:05;;;;;;;;;;;;;;;;;;5081750;28;19916;-76
2022/05/02 14:47:32;;;;;;;;;;;;;;;;;;5087414;28;20041;-76
2022/05/02 14:49:57;;;;;;;;;;;;;;;;;;5077365;28;19921;-74
2022/05/02 14:52:23;;;;;;;;;;;;;;;;;;5072424;28;19921;-75
2022/05/02 14:54:54;;;;;;;;;;;;;;;;;;5085664;28;20009;-75
2022/05/02 14:57:21;;;;;;;;;;;;;;;;;;5093403;28;19916;-75
2022/05/02 14:59:49;;;;;;;;;;;;;;;;;;5080374;28;20019;-75
2022/05/02 15:02:19;;;;;;;;;;;;;;;;;;5073400;28;20358;-75
2022/05/02 15:04:46;;;;;;;;;;;;;;;;;;5082329;28;19916;-75
2022/05/02 15:07:12;;;;;;;;;;;;;;;;;;5091018;28;19948;-75
2022/05/02 15:10:13;;;;;;;;;;;;;;;;;;5087957;28;19920;-75
2022/05/02 15:13:10;;;;;;;;;;;;;;;;;;5092626;28;19922;-75
2022/05/02 15:15:36;;;;;;;;;;;;;;;;;;5053403;28;19916;-75
2022/05/02 15:18:15;;;;;;;;;;;;;;;;;;5080811;28;19924;-75
2022/05/02 15:20:45;;;;;;;;;;;;;;;;;;5071204;28;19931;-74
2022/05/02 15:23:14;;;;;;;;;;;;;;;;;;5093605;28;20358;-76
2022/05/02 15:25:49;;;;;;;;;;;;;;;;;;5078979;28;19916;-77
2022/05/02 15:39:19;;;;;;;;;;;;;;;;;;5083775;28;19920;-75
2022/05/02 15:41:45;;;;;;;;;;;;;;;;;;5076568;28;19917;-75
2022/05/02 15:44:18;;;;;;;;;;;;;;;;;;5093825;28;19916;-74
2022/05/02 15:46:44;;;;;;;;;;;;;;;;;;5079615;28;20012;-75
2022/05/02 15:49:14;;;;;;;;;;;;;;;;;;5098301;28;20373;-75
2022/05/02 15:51:42;;;;;;;;;;;;;;;;;;5098489;28;19916;-75
2022/05/02 15:54:23;;;;;;;;;;;;;;;;;;5082723;28;19924;-76
2022/05/02 15:57:06;;;;;;;;;;;;;;;;;;5084590;28;19920;-74
2022/05/02 15:59:35;;;;;;;;;;;;;;;;;;5066417;28;19921;-74
2022/05/02 16:02:01;;;;;;;;;;;;;;;;;;5092036;28;20011;-75
2022/05/02 16:04:34;;;;;;;;;;;;;;;;;;5099846;28;19916;-74
2022/05/02 16:10:29;;;;;;;;;;;;;;;;;;5099919;28;20020;-75
2022/05/02 16:10:32;;;;;;;;;;;;;;;;;;5097312;28;19920;-74
2022/05/02 16:12:58;;;;;;;;;;;;;;;;;;5088948;28;19916;-75
2022/05/02 16:15:26;;;;;;;;;;;;;;;;;;5096275;28;19923;-75
2022/05/02 16:17:57;;;;;;;;;;;;;;;;;;5095774;28;19920;-75
2022/05/02 16:20:23;;;;;;;;;;;;;;;;;;5078971;28;19922;-75
2022/05/02 16:22:49;;;;;;;;;;;;;;;;;;5095932;28;19999;-74
2022/05/02 16:25:20;;;;;;;;;;;;;;;;;;5096977;28;20374;-74
2022/05/02 16:27:45;;;;;;;;;;;;;;;;;;5078078;28;20390;-74
2022/05/02 16:30:12;;;;;;;;;;;;;;;;;;5092845;28;19977;-75
2022/05/02 16:32:38;;;;;;;;;;;;;;;;;;5077069;28;19983;-75
2022/05/02 16:35:11;;;;;;;;;;;;;;;;;;5093971;28;20302;-74
2022/05/02 16:37:37;;;;;;;;;;;;;;;;;;5095379;28;19916;-74
2022/05/02 16:40:07;;;;;;;;;;;;;;;;;;5091694;28;19986;-75
2022/05/02 16:42:40;;;;;;;;;;;;;;;;;;5094303;28;20423;-75
2022/05/02 16:45:06;;;;;;;;;;;;;;;;;;5096901;28;20048;-74
2022/05/02 16:47:32;;;;;;;;;;;;;;;;;;5095526;28;19916;-75
2022/05/02 16:49:58;;;;;;;;;;;;;;;;;;5097475;28;19924;-75
2022/05/02 16:52:31;;;;;;;;;;;;;;;;;;5096484;28;20174;-74
2022/05/02 16:54:56;;;;;;;;;;;;;;;;;;5096441;28;19943;-75
2022/05/02 16:57:30;;;;;;;;;;;;;;;;;;5098321;28;20370;-75
2022/05/02 16:59:55;;;;;;;;;;;;;;;;;;5096433;28;19916;-75
2022/05/02 17:02:21;;;;;;;;;;;;;;;;;;5097260;28;19916;-75
2022/05/02 17:04:47;;;;;;;;;;;;;;;;;;5098504;28;20358;-77
2022/05/02 17:07:13;;;;;;;;;;;;;;;;;;5095205;28;19958;-75
2022/05/02 17:09:38;;;;;;;;;;;;;;;;;;5095611;28;19920;-77
2022/05/02 17:12:04;;;;;;;;;;;;;;;;;;5095323;28;20289;-76
2022/05/02 17:14:29;;;;;;;;;;;;;;;;;;5095505;28;20657;-79
2022/05/02 17:16:57;;;;;;;;;;;;;;;;;;5097019;28;19966;-77
2022/05/02 17:19:23;;;;;;;;;;;;;;;;;;5095807;28;20321;-77
2022/05/02 17:21:57;;;;;;;;;;;;;;;;;;5097877;28;19916;-79
2022/05/02 17:24:23;;;;;;;;;;;;;;;;;;5081924;28;19916;-80
2022/05/02 17:27:00;;;;;;;;;;;;;;;;;;5099501;28;19916;-80
2022/05/02 17:29:30;;;;;;;;;;;;;;;;;;5098933;28;19981;-79
2022/05/02 17:31:56;;;;;;;;;;;;;;;;;;5098530;28;20316;-79
2022/05/02 17:34:22;;;;;;;;;;;;;;;;;;5095753;28;20432;-75
2022/05/02 17:36:51;;;;;;;;;;;;;;;;;;5094270;28;19920;-75
2022/05/02 17:39:35;;;;;;;;;;;;;;;;;;5094599;28;19920;-76
2022/05/02 17:42:05;;;;;;;;;;;;;;;;;;5095025;28;20011;-75
2022/05/02 17:44:36;;;;;;;;;;;;;;;;;;5093994;28;19942;-75
2022/05/02 17:47:02;;;;;;;;;;;;;;;;;;5093273;28;19958;-74